sensor_id;sensor_type;location;lat;lon;timestamp;P1;durP1;ratioP1;P2;durP2;ratioP2
38513;SDS011;24282;48.400;10.808;2023-04-29T00:01:53;2.17;;;1.67;;
38513;SDS011;24282;48.400;10.808;2023-04-29T00:04:23;3.93;;;2.47;;
38513;SDS011;24282;48.400;10.808;2023-04-29T00:06:49;2.80;;;2.10;;
38513;SDS011;24282;48.400;10.808;2023-04-29T00:09:15;3.57;;;2.00;;
38513;SDS011;24282;48.400;10.808;2023-04-29T00:11:40;3.13;;;2.10;;
38513;SDS011;24282;48.400;10.808;2023-04-29T00:14:06;3.50;;;2.67;;
38513;SDS011;24282;48.400;10.808;2023-04-29T00:16:32;3.63;;;2.50;;
38513;SDS011;24282;48.400;10.808;2023-04-29T00:18:57;3.30;;;2.43;;
38513;SDS011;24282;48.400;10.808;2023-04-29T00:21:23;4.63;;;2.90;;
38513;SDS011;24282;48.400;10.808;2023-04-29T00:23:51;4.33;;;3.07;;
38513;SDS011;24282;48.400;10.808;2023-04-29T00:26:17;3.90;;;2.57;;
38513;SDS011;24282;48.400;10.808;2023-04-29T00:28:45;3.83;;;3.07;;
38513;SDS011;24282;48.400;10.808;2023-04-29T00:31:11;4.23;;;3.20;;
38513;SDS011;24282;48.400;10.808;2023-04-29T00:33:37;4.30;;;3.00;;
38513;SDS011;24282;48.400;10.808;2023-04-29T00:36:04;5.13;;;3.90;;
38513;SDS011;24282;48.400;10.808;2023-04-29T00:38:31;5.63;;;4.13;;
38513;SDS011;24282;48.400;10.808;2023-04-29T00:40:56;5.03;;;4.07;;
38513;SDS011;24282;48.400;10.808;2023-04-29T00:43:22;5.23;;;3.80;;
38513;SDS011;24282;48.400;10.808;2023-04-29T00:45:48;5.67;;;4.20;;
38513;SDS011;24282;48.400;10.808;2023-04-29T00:48:14;5.87;;;3.67;;
38513;SDS011;24282;48.400;10.808;2023-04-29T00:50:40;5.30;;;3.40;;
38513;SDS011;24282;48.400;10.808;2023-04-29T00:53:07;5.23;;;2.73;;
38513;SDS011;24282;48.400;10.808;2023-04-29T00:55:33;5.33;;;3.00;;
38513;SDS011;24282;48.400;10.808;2023-04-29T00:58:01;4.80;;;2.53;;
38513;SDS011;24282;48.400;10.808;2023-04-29T01:00:28;4.87;;;2.97;;
38513;SDS011;24282;48.400;10.808;2023-04-29T01:02:55;4.17;;;2.50;;
38513;SDS011;24282;48.400;10.808;2023-04-29T01:05:22;4.90;;;2.80;;
38513;SDS011;24282;48.400;10.808;2023-04-29T01:10:27;3.80;;;2.57;;
38513;SDS011;24282;48.400;10.808;2023-04-29T01:12:57;4.63;;;2.42;;
38513;SDS011;24282;48.400;10.808;2023-04-29T01:15:38;5.53;;;2.47;;
38513;SDS011;24282;48.400;10.808;2023-04-29T01:18:25;4.27;;;2.20;;
38513;SDS011;24282;48.400;10.808;2023-04-29T01:20:55;4.80;;;2.23;;
38513;SDS011;24282;48.400;10.808;2023-04-29T01:23:25;2.77;;;1.80;;
38513;SDS011;24282;48.400;10.808;2023-04-29T01:25:52;2.77;;;1.90;;
38513;SDS011;24282;48.400;10.808;2023-04-29T01:31:06;2.23;;;1.60;;
38513;SDS011;24282;48.400;10.808;2023-04-29T01:36:13;2.30;;;1.07;;
38513;SDS011;24282;48.400;10.808;2023-04-29T01:44:04;3.37;;;1.80;;
38513;SDS011;24282;48.400;10.808;2023-04-29T01:46:35;2.60;;;1.80;;
38513;SDS011;24282;48.400;10.808;2023-04-29T01:49:02;2.83;;;2.10;;
38513;SDS011;24282;48.400;10.808;2023-04-29T01:51:28;3.10;;;1.80;;
38513;SDS011;24282;48.400;10.808;2023-04-29T01:53:54;3.57;;;2.13;;
38513;SDS011;24282;48.400;10.808;2023-04-29T01:56:20;3.97;;;2.13;;
38513;SDS011;24282;48.400;10.808;2023-04-29T01:58:58;4.50;;;2.80;;
38513;SDS011;24282;48.400;10.808;2023-04-29T02:01:50;4.30;;;3.00;;
38513;SDS011;24282;48.400;10.808;2023-04-29T02:04:17;4.13;;;2.60;;
38513;SDS011;24282;48.400;10.808;2023-04-29T02:06:43;4.73;;;3.03;;
38513;SDS011;24282;48.400;10.808;2023-04-29T02:09:08;5.30;;;3.20;;
38513;SDS011;24282;48.400;10.808;2023-04-29T02:11:34;5.73;;;4.00;;
38513;SDS011;24282;48.400;10.808;2023-04-29T02:14:00;6.00;;;3.67;;
38513;SDS011;24282;48.400;10.808;2023-04-29T02:16:26;5.60;;;3.93;;
38513;SDS011;24282;48.400;10.808;2023-04-29T02:18:58;5.50;;;4.03;;
38513;SDS011;24282;48.400;10.808;2023-04-29T02:21:23;5.13;;;3.57;;
38513;SDS011;24282;48.400;10.808;2023-04-29T02:23:49;5.97;;;4.10;;
38513;SDS011;24282;48.400;10.808;2023-04-29T02:26:15;5.73;;;4.17;;
38513;SDS011;24282;48.400;10.808;2023-04-29T02:28:41;6.17;;;4.70;;
38513;SDS011;24282;48.400;10.808;2023-04-29T02:31:07;5.13;;;3.83;;
38513;SDS011;24282;48.400;10.808;2023-04-29T02:33:33;6.10;;;4.20;;
38513;SDS011;24282;48.400;10.808;2023-04-29T02:35:58;6.23;;;3.67;;
38513;SDS011;24282;48.400;10.808;2023-04-29T02:38:24;6.37;;;3.60;;
38513;SDS011;24282;48.400;10.808;2023-04-29T02:40:50;4.47;;;3.47;;
38513;SDS011;24282;48.400;10.808;2023-04-29T02:43:16;5.23;;;4.00;;
38513;SDS011;24282;48.400;10.808;2023-04-29T02:45:43;4.90;;;3.63;;
38513;SDS011;24282;48.400;10.808;2023-04-29T02:48:09;5.67;;;4.47;;
38513;SDS011;24282;48.400;10.808;2023-04-29T02:50:34;5.30;;;3.70;;
38513;SDS011;24282;48.400;10.808;2023-04-29T02:53:01;5.20;;;3.97;;
38513;SDS011;24282;48.400;10.808;2023-04-29T02:55:27;5.03;;;3.73;;
38513;SDS011;24282;48.400;10.808;2023-04-29T02:57:56;6.83;;;3.83;;
38513;SDS011;24282;48.400;10.808;2023-04-29T03:00:22;5.53;;;3.60;;
38513;SDS011;24282;48.400;10.808;2023-04-29T03:02:48;4.10;;;3.00;;
38513;SDS011;24282;48.400;10.808;2023-04-29T03:05:13;4.00;;;2.80;;
38513;SDS011;24282;48.400;10.808;2023-04-29T03:07:39;4.33;;;3.47;;
38513;SDS011;24282;48.400;10.808;2023-04-29T03:10:05;4.80;;;3.50;;
38513;SDS011;24282;48.400;10.808;2023-04-29T03:12:34;5.17;;;3.57;;
38513;SDS011;24282;48.400;10.808;2023-04-29T03:15:00;5.00;;;3.60;;
38513;SDS011;24282;48.400;10.808;2023-04-29T03:17:26;4.77;;;3.53;;
38513;SDS011;24282;48.400;10.808;2023-04-29T03:19:52;5.93;;;3.57;;
38513;SDS011;24282;48.400;10.808;2023-04-29T03:22:18;5.17;;;3.67;;
38513;SDS011;24282;48.400;10.808;2023-04-29T03:24:44;5.00;;;3.63;;
38513;SDS011;24282;48.400;10.808;2023-04-29T03:27:09;5.00;;;3.63;;
38513;SDS011;24282;48.400;10.808;2023-04-29T03:29:35;4.50;;;3.30;;
38513;SDS011;24282;48.400;10.808;2023-04-29T03:32:01;4.43;;;3.43;;
38513;SDS011;24282;48.400;10.808;2023-04-29T03:34:27;5.40;;;3.77;;
38513;SDS011;24282;48.400;10.808;2023-04-29T03:37:14;5.33;;;4.10;;
38513;SDS011;24282;48.400;10.808;2023-04-29T03:39:46;9.10;;;6.35;;
38513;SDS011;24282;48.400;10.808;2023-04-29T03:42:12;11.10;;;8.30;;
38513;SDS011;24282;48.400;10.808;2023-04-29T03:44:38;8.20;;;6.40;;
38513;SDS011;24282;48.400;10.808;2023-04-29T03:47:04;5.73;;;4.90;;
38513;SDS011;24282;48.400;10.808;2023-04-29T03:49:30;6.87;;;5.37;;
38513;SDS011;24282;48.400;10.808;2023-04-29T03:51:56;10.00;;;6.90;;
38513;SDS011;24282;48.400;10.808;2023-04-29T03:54:22;9.67;;;6.47;;
38513;SDS011;24282;48.400;10.808;2023-04-29T03:56:48;7.07;;;5.17;;
38513;SDS011;24282;48.400;10.808;2023-04-29T03:59:13;4.77;;;3.57;;
38513;SDS011;24282;48.400;10.808;2023-04-29T04:01:40;3.77;;;3.00;;
38513;SDS011;24282;48.400;10.808;2023-04-29T04:04:06;3.73;;;2.73;;
38513;SDS011;24282;48.400;10.808;2023-04-29T04:06:33;3.63;;;2.80;;
38513;SDS011;24282;48.400;10.808;2023-04-29T04:08:59;3.90;;;2.60;;
38513;SDS011;24282;48.400;10.808;2023-04-29T04:11:27;3.00;;;2.40;;
38513;SDS011;24282;48.400;10.808;2023-04-29T04:13:59;4.67;;;3.07;;
38513;SDS011;24282;48.400;10.808;2023-04-29T04:16:24;3.80;;;3.00;;
38513;SDS011;24282;48.400;10.808;2023-04-29T04:18:50;3.13;;;2.60;;
38513;SDS011;24282;48.400;10.808;2023-04-29T04:21:16;3.70;;;3.00;;
38513;SDS011;24282;48.400;10.808;2023-04-29T04:23:47;4.63;;;4.03;;
38513;SDS011;24282;48.400;10.808;2023-04-29T04:26:18;4.50;;;3.80;;
38513;SDS011;24282;48.400;10.808;2023-04-29T04:29:00;5.37;;;4.33;;
38513;SDS011;24282;48.400;10.808;2023-04-29T04:31:52;5.33;;;4.70;;
38513;SDS011;24282;48.400;10.808;2023-04-29T04:34:19;5.80;;;4.43;;
38513;SDS011;24282;48.400;10.808;2023-04-29T04:36:47;5.60;;;4.73;;
38513;SDS011;24282;48.400;10.808;2023-04-29T04:39:13;6.33;;;5.60;;
38513;SDS011;24282;48.400;10.808;2023-04-29T04:41:39;7.83;;;7.03;;
38513;SDS011;24282;48.400;10.808;2023-04-29T04:44:06;9.60;;;7.77;;
38513;SDS011;24282;48.400;10.808;2023-04-29T04:46:40;10.73;;;9.63;;
38513;SDS011;24282;48.400;10.808;2023-04-29T04:49:25;9.93;;;8.47;;
38513;SDS011;24282;48.400;10.808;2023-04-29T04:51:51;10.10;;;9.10;;
38513;SDS011;24282;48.400;10.808;2023-04-29T04:54:18;10.93;;;9.67;;
38513;SDS011;24282;48.400;10.808;2023-04-29T04:56:44;13.47;;;12.07;;
38513;SDS011;24282;48.400;10.808;2023-04-29T04:59:09;14.67;;;12.80;;
38513;SDS011;24282;48.400;10.808;2023-04-29T05:01:37;14.67;;;11.50;;
38513;SDS011;24282;48.400;10.808;2023-04-29T05:04:03;13.47;;;12.03;;
38513;SDS011;24282;48.400;10.808;2023-04-29T05:06:29;12.13;;;10.83;;
38513;SDS011;24282;48.400;10.808;2023-04-29T05:08:55;13.60;;;11.60;;
38513;SDS011;24282;48.400;10.808;2023-04-29T05:11:22;13.40;;;12.00;;
38513;SDS011;24282;48.400;10.808;2023-04-29T05:14:20;11.97;;;10.63;;
38513;SDS011;24282;48.400;10.808;2023-04-29T05:16:46;15.60;;;12.33;;
38513;SDS011;24282;48.400;10.808;2023-04-29T05:19:11;15.07;;;11.80;;
38513;SDS011;24282;48.400;10.808;2023-04-29T05:21:38;13.50;;;11.03;;
38513;SDS011;24282;48.400;10.808;2023-04-29T05:24:06;13.60;;;11.07;;
38513;SDS011;24282;48.400;10.808;2023-04-29T05:26:32;13.47;;;11.53;;
38513;SDS011;24282;48.400;10.808;2023-04-29T05:28:59;15.40;;;12.53;;
38513;SDS011;24282;48.400;10.808;2023-04-29T05:31:27;12.90;;;11.30;;
38513;SDS011;24282;48.400;10.808;2023-04-29T05:33:54;12.37;;;11.03;;
38513;SDS011;24282;48.400;10.808;2023-04-29T05:36:20;14.73;;;12.23;;
38513;SDS011;24282;48.400;10.808;2023-04-29T05:38:46;14.93;;;11.80;;
38513;SDS011;24282;48.400;10.808;2023-04-29T05:41:12;14.53;;;11.93;;
38513;SDS011;24282;48.400;10.808;2023-04-29T05:43:47;16.90;;;12.53;;
38513;SDS011;24282;48.400;10.808;2023-04-29T05:46:13;16.90;;;13.20;;
38513;SDS011;24282;48.400;10.808;2023-04-29T05:48:40;15.43;;;11.83;;
38513;SDS011;24282;48.400;10.808;2023-04-29T05:51:09;13.13;;;10.67;;
38513;SDS011;24282;48.400;10.808;2023-04-29T05:53:36;15.47;;;12.60;;
38513;SDS011;24282;48.400;10.808;2023-04-29T05:56:03;13.77;;;11.73;;
38513;SDS011;24282;48.400;10.808;2023-04-29T05:58:35;16.60;;;13.37;;
38513;SDS011;24282;48.400;10.808;2023-04-29T06:01:01;16.50;;;12.73;;
38513;SDS011;24282;48.400;10.808;2023-04-29T06:03:28;14.47;;;12.17;;
38513;SDS011;24282;48.400;10.808;2023-04-29T06:06:15;15.30;;;12.20;;
38513;SDS011;24282;48.400;10.808;2023-04-29T06:09:13;15.83;;;12.27;;
38513;SDS011;24282;48.400;10.808;2023-04-29T06:11:44;14.73;;;12.47;;
38513;SDS011;24282;48.400;10.808;2023-04-29T06:14:10;13.83;;;12.33;;
38513;SDS011;24282;48.400;10.808;2023-04-29T06:16:35;12.63;;;11.33;;
38513;SDS011;24282;48.400;10.808;2023-04-29T06:19:01;16.97;;;13.20;;
38513;SDS011;24282;48.400;10.808;2023-04-29T06:21:27;14.73;;;11.67;;
38513;SDS011;24282;48.400;10.808;2023-04-29T06:23:53;12.17;;;10.87;;
38513;SDS011;24282;48.400;10.808;2023-04-29T06:26:20;13.20;;;11.10;;
38513;SDS011;24282;48.400;10.808;2023-04-29T06:28:46;12.25;;;10.65;;
38513;SDS011;24282;48.400;10.808;2023-04-29T06:31:13;12.50;;;11.20;;
38513;SDS011;24282;48.400;10.808;2023-04-29T06:33:40;10.85;;;9.77;;
38513;SDS011;24282;48.400;10.808;2023-04-29T06:36:06;9.75;;;8.75;;
38513;SDS011;24282;48.400;10.808;2023-04-29T06:38:40;10.80;;;9.20;;
38513;SDS011;24282;48.400;10.808;2023-04-29T06:41:28;11.32;;;9.80;;
38513;SDS011;24282;48.400;10.808;2023-04-29T06:44:07;11.73;;;9.93;;
38513;SDS011;24282;48.400;10.808;2023-04-29T06:46:54;13.23;;;9.30;;
38513;SDS011;24282;48.400;10.808;2023-04-29T06:49:45;9.82;;;8.82;;
38513;SDS011;24282;48.400;10.808;2023-04-29T06:52:11;8.63;;;7.75;;
38513;SDS011;24282;48.400;10.808;2023-04-29T06:54:37;7.88;;;7.07;;
38513;SDS011;24282;48.400;10.808;2023-04-29T06:57:03;9.20;;;8.25;;
38513;SDS011;24282;48.400;10.808;2023-04-29T06:59:29;9.02;;;8.13;;
38513;SDS011;24282;48.400;10.808;2023-04-29T07:01:54;9.48;;;8.45;;
38513;SDS011;24282;48.400;10.808;2023-04-29T07:04:20;8.50;;;7.70;;
38513;SDS011;24282;48.400;10.808;2023-04-29T07:06:46;8.30;;;7.07;;
38513;SDS011;24282;48.400;10.808;2023-04-29T07:09:12;6.75;;;5.50;;
38513;SDS011;24282;48.400;10.808;2023-04-29T07:11:38;6.80;;;5.80;;
38513;SDS011;24282;48.400;10.808;2023-04-29T07:14:05;6.50;;;5.70;;
38513;SDS011;24282;48.400;10.808;2023-04-29T07:16:31;6.60;;;5.55;;
38513;SDS011;24282;48.400;10.808;2023-04-29T07:18:58;7.32;;;6.57;;
38513;SDS011;24282;48.400;10.808;2023-04-29T07:21:24;7.60;;;6.90;;
38513;SDS011;24282;48.400;10.808;2023-04-29T07:23:51;6.43;;;5.60;;
38513;SDS011;24282;48.400;10.808;2023-04-29T07:26:17;8.80;;;5.55;;
38513;SDS011;24282;48.400;10.808;2023-04-29T07:28:44;6.20;;;5.60;;
38513;SDS011;24282;48.400;10.808;2023-04-29T07:31:10;6.35;;;4.97;;
38513;SDS011;24282;48.400;10.808;2023-04-29T07:33:39;6.28;;;5.55;;
38513;SDS011;24282;48.400;10.808;2023-04-29T07:36:05;6.60;;;5.85;;
38513;SDS011;24282;48.400;10.808;2023-04-29T07:38:31;7.65;;;5.95;;
38513;SDS011;24282;48.400;10.808;2023-04-29T07:40:58;5.03;;;4.53;;
38513;SDS011;24282;48.400;10.808;2023-04-29T07:43:24;4.45;;;3.85;;
38513;SDS011;24282;48.400;10.808;2023-04-29T07:45:49;4.97;;;3.95;;
38513;SDS011;24282;48.400;10.808;2023-04-29T07:48:19;5.18;;;3.50;;
38513;SDS011;24282;48.400;10.808;2023-04-29T07:50:45;3.22;;;2.80;;
38513;SDS011;24282;48.400;10.808;2023-04-29T07:53:11;3.70;;;2.97;;
38513;SDS011;24282;48.400;10.808;2023-04-29T07:55:37;4.40;;;3.10;;
38513;SDS011;24282;48.400;10.808;2023-04-29T07:58:03;3.15;;;2.75;;
38513;SDS011;24282;48.400;10.808;2023-04-29T08:00:29;4.40;;;3.92;;
38513;SDS011;24282;48.400;10.808;2023-04-29T08:02:55;3.60;;;2.58;;
38513;SDS011;24282;48.400;10.808;2023-04-29T08:05:22;3.88;;;3.00;;
38513;SDS011;24282;48.400;10.808;2023-04-29T08:07:48;4.28;;;2.95;;
38513;SDS011;24282;48.400;10.808;2023-04-29T08:10:16;8.43;;;4.80;;
38513;SDS011;24282;48.400;10.808;2023-04-29T08:12:46;3.80;;;3.03;;
38513;SDS011;24282;48.400;10.808;2023-04-29T08:15:12;3.08;;;2.28;;
38513;SDS011;24282;48.400;10.808;2023-04-29T08:17:38;4.80;;;2.20;;
38513;SDS011;24282;48.400;10.808;2023-04-29T08:20:05;3.25;;;2.30;;
38513;SDS011;24282;48.400;10.808;2023-04-29T08:22:32;3.55;;;2.10;;
38513;SDS011;24282;48.400;10.808;2023-04-29T08:24:57;3.17;;;2.10;;
38513;SDS011;24282;48.400;10.808;2023-04-29T08:27:23;2.85;;;2.30;;
38513;SDS011;24282;48.400;10.808;2023-04-29T08:29:49;3.10;;;2.30;;
38513;SDS011;24282;48.400;10.808;2023-04-29T08:32:15;4.25;;;2.80;;
38513;SDS011;24282;48.400;10.808;2023-04-29T08:34:41;6.30;;;3.10;;
38513;SDS011;24282;48.400;10.808;2023-04-29T08:37:08;4.30;;;3.20;;
38513;SDS011;24282;48.400;10.808;2023-04-29T08:39:35;3.63;;;2.90;;
38513;SDS011;24282;48.400;10.808;2023-04-29T08:42:06;4.88;;;3.30;;
38513;SDS011;24282;48.400;10.808;2023-04-29T08:44:33;3.78;;;3.10;;
38513;SDS011;24282;48.400;10.808;2023-04-29T08:46:59;4.38;;;2.90;;
38513;SDS011;24282;48.400;10.808;2023-04-29T08:49:26;3.03;;;2.35;;
38513;SDS011;24282;48.400;10.808;2023-04-29T08:51:58;5.38;;;2.83;;
38513;SDS011;24282;48.400;10.808;2023-04-29T08:54:24;3.97;;;2.33;;
38513;SDS011;24282;48.400;10.808;2023-04-29T08:56:52;2.60;;;1.75;;
38513;SDS011;24282;48.400;10.808;2023-04-29T08:59:20;2.92;;;1.88;;
38513;SDS011;24282;48.400;10.808;2023-04-29T09:01:47;2.28;;;1.50;;
38513;SDS011;24282;48.400;10.808;2023-04-29T09:07:17;3.13;;;1.20;;
38513;SDS011;24282;48.400;10.808;2023-04-29T09:09:42;1.70;;;1.30;;
38513;SDS011;24282;48.400;10.808;2023-04-29T09:12:08;2.92;;;1.50;;
38513;SDS011;24282;48.400;10.808;2023-04-29T09:14:35;2.78;;;1.15;;
38513;SDS011;24282;48.400;10.808;2023-04-29T09:17:01;2.80;;;1.10;;
38513;SDS011;24282;48.400;10.808;2023-04-29T09:19:30;3.45;;;0.85;;
38513;SDS011;24282;48.400;10.808;2023-04-29T09:21:57;1.70;;;0.90;;
38513;SDS011;24282;48.400;10.808;2023-04-29T09:24:24;1.63;;;1.13;;
38513;SDS011;24282;48.400;10.808;2023-04-29T09:26:51;2.28;;;1.10;;
38513;SDS011;24282;48.400;10.808;2023-04-29T09:29:17;1.52;;;1.05;;
38513;SDS011;24282;48.400;10.808;2023-04-29T09:31:43;4.32;;;1.20;;
38513;SDS011;24282;48.400;10.808;2023-04-29T09:34:09;2.00;;;1.10;;
38513;SDS011;24282;48.400;10.808;2023-04-29T09:39:06;1.65;;;1.10;;
38513;SDS011;24282;48.400;10.808;2023-04-29T09:44:16;1.60;;;1.05;;
38513;SDS011;24282;48.400;10.808;2023-04-29T09:46:43;1.85;;;1.10;;
38513;SDS011;24282;48.400;10.808;2023-04-29T09:49:42;1.50;;;0.98;;
38513;SDS011;24282;48.400;10.808;2023-04-29T09:52:13;0.77;;;0.77;;
38513;SDS011;24282;48.400;10.808;2023-04-29T09:54:41;1.65;;;0.80;;
38513;SDS011;24282;48.400;10.808;2023-04-29T09:57:09;1.88;;;0.70;;
38513;SDS011;24282;48.400;10.808;2023-04-29T09:59:36;1.23;;;0.80;;
38513;SDS011;24282;48.400;10.808;2023-04-29T10:02:12;2.03;;;0.90;;
38513;SDS011;24282;48.400;10.808;2023-04-29T10:04:40;1.10;;;0.65;;
38513;SDS011;24282;48.400;10.808;2023-04-29T10:07:10;1.23;;;0.70;;
38513;SDS011;24282;48.400;10.808;2023-04-29T10:09:39;0.70;;;0.50;;
38513;SDS011;24282;48.400;10.808;2023-04-29T10:12:05;1.45;;;0.73;;
38513;SDS011;24282;48.400;10.808;2023-04-29T10:14:32;1.95;;;0.80;;
38513;SDS011;24282;48.400;10.808;2023-04-29T10:17:09;1.55;;;0.98;;
38513;SDS011;24282;48.400;10.808;2023-04-29T10:25:14;1.77;;;1.10;;
38513;SDS011;24282;48.400;10.808;2023-04-29T10:27:41;2.85;;;1.45;;
38513;SDS011;24282;48.400;10.808;2023-04-29T10:30:17;1.58;;;0.90;;
38513;SDS011;24282;48.400;10.808;2023-04-29T10:32:45;1.10;;;0.80;;
38513;SDS011;24282;48.400;10.808;2023-04-29T10:35:12;1.13;;;0.85;;
38513;SDS011;24282;48.400;10.808;2023-04-29T10:37:45;1.60;;;1.00;;
38513;SDS011;24282;48.400;10.808;2023-04-29T10:40:16;1.02;;;0.75;;
38513;SDS011;24282;48.400;10.808;2023-04-29T10:45:28;1.27;;;0.73;;
38513;SDS011;24282;48.400;10.808;2023-04-29T10:51:12;0.95;;;0.75;;
38513;SDS011;24282;48.400;10.808;2023-04-29T10:53:13;1.27;;;0.90;;
38513;SDS011;24282;48.400;10.808;2023-04-29T10:55:40;1.05;;;0.70;;
38513;SDS011;24282;48.400;10.808;2023-04-29T11:06:45;1.13;;;0.55;;
38513;SDS011;24282;48.400;10.808;2023-04-29T11:14:07;0.60;;;0.52;;
38513;SDS011;24282;48.400;10.808;2023-04-29T11:16:35;1.45;;;0.77;;
38513;SDS011;24282;48.400;10.808;2023-04-29T11:19:08;0.65;;;0.40;;
38513;SDS011;24282;48.400;10.808;2023-04-29T11:21:35;2.95;;;0.70;;
38513;SDS011;24282;48.400;10.808;2023-04-29T11:24:05;1.02;;;0.60;;
38513;SDS011;24282;48.400;10.808;2023-04-29T11:26:31;2.45;;;0.70;;
38513;SDS011;24282;48.400;10.808;2023-04-29T11:28:58;3.20;;;0.60;;
38513;SDS011;24282;48.400;10.808;2023-04-29T11:31:25;2.50;;;0.70;;
38513;SDS011;24282;48.400;10.808;2023-04-29T11:33:55;0.50;;;0.40;;
38513;SDS011;24282;48.400;10.808;2023-04-29T11:36:20;1.20;;;0.50;;
38513;SDS011;24282;48.400;10.808;2023-04-29T11:38:46;1.30;;;0.60;;
38513;SDS011;24282;48.400;10.808;2023-04-29T11:41:12;1.02;;;0.57;;
38513;SDS011;24282;48.400;10.808;2023-04-29T11:43:39;0.70;;;0.60;;
38513;SDS011;24282;48.400;10.808;2023-04-29T11:46:14;1.50;;;0.68;;
38513;SDS011;24282;48.400;10.808;2023-04-29T11:48:46;0.60;;;0.57;;
38513;SDS011;24282;48.400;10.808;2023-04-29T11:51:13;0.70;;;0.50;;
38513;SDS011;24282;48.400;10.808;2023-04-29T11:53:40;0.82;;;0.52;;
38513;SDS011;24282;48.400;10.808;2023-04-29T11:56:07;0.60;;;0.40;;
38513;SDS011;24282;48.400;10.808;2023-04-29T11:58:34;1.38;;;0.68;;
38513;SDS011;24282;48.400;10.808;2023-04-29T12:01:01;0.45;;;0.40;;
38513;SDS011;24282;48.400;10.808;2023-04-29T12:03:28;1.88;;;0.52;;
38513;SDS011;24282;48.400;10.808;2023-04-29T12:05:55;0.50;;;0.40;;
38513;SDS011;24282;48.400;10.808;2023-04-29T12:08:25;0.73;;;0.60;;
38513;SDS011;24282;48.400;10.808;2023-04-29T12:10:53;1.02;;;0.60;;
38513;SDS011;24282;48.400;10.808;2023-04-29T12:13:21;0.77;;;0.57;;
38513;SDS011;24282;48.400;10.808;2023-04-29T12:15:48;1.48;;;0.40;;
38513;SDS011;24282;48.400;10.808;2023-04-29T12:18:18;0.40;;;0.40;;
38513;SDS011;24282;48.400;10.808;2023-04-29T12:20:46;1.48;;;0.50;;
38513;SDS011;24282;48.400;10.808;2023-04-29T12:25:39;0.60;;;0.50;;
38513;SDS011;24282;48.400;10.808;2023-04-29T12:28:10;0.47;;;0.38;;
38513;SDS011;24282;48.400;10.808;2023-04-29T12:30:39;3.17;;;0.70;;
38513;SDS011;24282;48.400;10.808;2023-04-29T12:33:08;1.27;;;0.52;;
38513;SDS011;24282;48.400;10.808;2023-04-29T12:35:34;2.17;;;0.63;;
38513;SDS011;24282;48.400;10.808;2023-04-29T12:38:01;0.82;;;0.52;;
38513;SDS011;24282;48.400;10.808;2023-04-29T12:40:27;1.40;;;0.60;;
38513;SDS011;24282;48.400;10.808;2023-04-29T12:42:53;1.42;;;0.47;;
38513;SDS011;24282;48.400;10.808;2023-04-29T12:45:31;0.98;;;0.50;;
38513;SDS011;24282;48.400;10.808;2023-04-29T12:47:58;0.93;;;0.50;;
38513;SDS011;24282;48.400;10.808;2023-04-29T12:50:35;0.75;;;0.40;;
38513;SDS011;24282;48.400;10.808;2023-04-29T12:53:03;1.27;;;0.63;;
38513;SDS011;24282;48.400;10.808;2023-04-29T12:55:31;0.65;;;0.50;;
38513;SDS011;24282;48.400;10.808;2023-04-29T12:57:58;0.60;;;0.50;;
38513;SDS011;24282;48.400;10.808;2023-04-29T13:00:24;0.50;;;0.50;;
38513;SDS011;24282;48.400;10.808;2023-04-29T13:02:50;0.50;;;0.50;;
38513;SDS011;24282;48.400;10.808;2023-04-29T13:05:16;0.73;;;0.47;;
38513;SDS011;24282;48.400;10.808;2023-04-29T13:07:42;0.45;;;0.35;;
38513;SDS011;24282;48.400;10.808;2023-04-29T13:10:08;0.43;;;0.40;;
38513;SDS011;24282;48.400;10.808;2023-04-29T13:12:36;4.10;;;1.00;;
38513;SDS011;24282;48.400;10.808;2023-04-29T13:15:02;3.30;;;1.10;;
38513;SDS011;24282;48.400;10.808;2023-04-29T13:17:28;2.85;;;1.52;;
38513;SDS011;24282;48.400;10.808;2023-04-29T13:19:54;2.67;;;1.40;;
38513;SDS011;24282;48.400;10.808;2023-04-29T13:22:19;1.08;;;0.80;;
38513;SDS011;24282;48.400;10.808;2023-04-29T13:24:45;2.47;;;1.30;;
38513;SDS011;24282;48.400;10.808;2023-04-29T13:27:11;1.52;;;0.80;;
38513;SDS011;24282;48.400;10.808;2023-04-29T13:29:37;2.70;;;1.15;;
38513;SDS011;24282;48.400;10.808;2023-04-29T13:32:03;1.38;;;0.57;;
38513;SDS011;24282;48.400;10.808;2023-04-29T13:34:29;1.20;;;0.55;;
38513;SDS011;24282;48.400;10.808;2023-04-29T13:36:54;2.15;;;0.95;;
38513;SDS011;24282;48.400;10.808;2023-04-29T13:39:20;1.58;;;0.88;;
38513;SDS011;24282;48.400;10.808;2023-04-29T13:41:47;1.25;;;1.00;;
38513;SDS011;24282;48.400;10.808;2023-04-29T13:44:13;0.98;;;0.60;;
38513;SDS011;24282;48.400;10.808;2023-04-29T13:46:39;1.30;;;0.70;;
38513;SDS011;24282;48.400;10.808;2023-04-29T13:49:05;1.50;;;0.80;;
38513;SDS011;24282;48.400;10.808;2023-04-29T13:51:31;0.60;;;0.50;;
38513;SDS011;24282;48.400;10.808;2023-04-29T13:53:56;1.20;;;0.60;;
38513;SDS011;24282;48.400;10.808;2023-04-29T13:56:22;0.75;;;0.60;;
38513;SDS011;24282;48.400;10.808;2023-04-29T13:58:50;0.73;;;0.55;;
38513;SDS011;24282;48.400;10.808;2023-04-29T14:01:16;1.00;;;0.60;;
38513;SDS011;24282;48.400;10.808;2023-04-29T14:03:42;0.98;;;0.60;;
38513;SDS011;24282;48.400;10.808;2023-04-29T14:06:08;1.23;;;0.40;;
38513;SDS011;24282;48.400;10.808;2023-04-29T14:08:37;0.80;;;0.50;;
38513;SDS011;24282;48.400;10.808;2023-04-29T14:11:02;2.17;;;0.47;;
38513;SDS011;24282;48.400;10.808;2023-04-29T14:13:29;0.40;;;0.40;;
38513;SDS011;24282;48.400;10.808;2023-04-29T14:15:54;1.27;;;0.50;;
38513;SDS011;24282;48.400;10.808;2023-04-29T14:18:20;1.80;;;0.70;;
38513;SDS011;24282;48.400;10.808;2023-04-29T14:20:46;0.65;;;0.40;;
38513;SDS011;24282;48.400;10.808;2023-04-29T14:23:12;1.23;;;0.40;;
38513;SDS011;24282;48.400;10.808;2023-04-29T14:25:37;0.82;;;0.55;;
38513;SDS011;24282;48.400;10.808;2023-04-29T14:28:03;1.48;;;0.60;;
38513;SDS011;24282;48.400;10.808;2023-04-29T14:30:29;1.08;;;0.65;;
38513;SDS011;24282;48.400;10.808;2023-04-29T14:32:55;0.60;;;0.40;;
38513;SDS011;24282;48.400;10.808;2023-04-29T14:35:21;0.90;;;0.60;;
38513;SDS011;24282;48.400;10.808;2023-04-29T14:37:47;1.75;;;0.80;;
38513;SDS011;24282;48.400;10.808;2023-04-29T14:40:14;0.90;;;0.60;;
38513;SDS011;24282;48.400;10.808;2023-04-29T14:42:40;1.15;;;0.60;;
38513;SDS011;24282;48.400;10.808;2023-04-29T14:45:06;0.80;;;0.60;;
38513;SDS011;24282;48.400;10.808;2023-04-29T14:47:32;1.00;;;0.70;;
38513;SDS011;24282;48.400;10.808;2023-04-29T14:49:57;1.30;;;0.65;;
38513;SDS011;24282;48.400;10.808;2023-04-29T14:52:23;1.15;;;0.70;;
38513;SDS011;24282;48.400;10.808;2023-04-29T14:54:49;1.27;;;0.77;;
38513;SDS011;24282;48.400;10.808;2023-04-29T14:57:15;0.80;;;0.60;;
38513;SDS011;24282;48.400;10.808;2023-04-29T14:59:41;0.60;;;0.60;;
38513;SDS011;24282;48.400;10.808;2023-04-29T15:02:06;1.00;;;0.60;;
38513;SDS011;24282;48.400;10.808;2023-04-29T15:04:32;1.23;;;0.57;;
38513;SDS011;24282;48.400;10.808;2023-04-29T15:06:58;1.25;;;0.80;;
38513;SDS011;24282;48.400;10.808;2023-04-29T15:09:24;1.00;;;0.70;;
38513;SDS011;24282;48.400;10.808;2023-04-29T15:11:51;1.63;;;0.70;;
38513;SDS011;24282;48.400;10.808;2023-04-29T15:14:17;1.15;;;0.90;;
38513;SDS011;24282;48.400;10.808;2023-04-29T15:16:43;1.13;;;0.70;;
38513;SDS011;24282;48.400;10.808;2023-04-29T15:19:08;0.80;;;0.65;;
38513;SDS011;24282;48.400;10.808;2023-04-29T15:21:34;1.48;;;0.70;;
38513;SDS011;24282;48.400;10.808;2023-04-29T15:24:00;1.20;;;1.00;;